sensor_id;sensor_type;location;lat;lon;timestamp;pressure;altitude;pressure_sealevel;temperature;humidity
12879;BME280;20617;49.476;10.986;2022-09-06T00:01:41;98424.78;;;20.58;82.18
12879;BME280;20617;49.476;10.986;2022-09-06T00:03:46;98422.13;;;20.58;81.73
12879;BME280;20617;49.476;10.986;2022-09-06T00:05:51;98417.09;;;20.55;81.89
12879;BME280;20617;49.476;10.986;2022-09-06T00:07:57;98424.88;;;20.56;81.57
12879;BME280;20617;49.476;10.986;2022-09-06T00:10:03;98423.22;;;20.55;81.97
12879;BME280;20617;49.476;10.986;2022-09-06T00:12:08;98419.59;;;20.56;81.73
12879;BME280;20617;49.476;10.986;2022-09-06T00:14:13;98421.41;;;20.56;81.76
12879;BME280;20617;49.476;10.986;2022-09-06T00:16:21;98421.41;;;20.56;81.77
12879;BME280;20617;49.476;10.986;2022-09-06T00:18:34;98429.47;;;20.54;81.56
12879;BME280;20617;49.476;10.986;2022-09-06T00:20:39;98425.13;;;20.53;81.64
12879;BME280;20617;49.476;10.986;2022-09-06T00:22:44;98423.34;;;20.54;81.14
12879;BME280;20617;49.476;10.986;2022-09-06T00:24:49;98424.19;;;20.54;81.51
12879;BME280;20617;49.476;10.986;2022-09-06T00:26:54;98425.13;;;20.53;81.44
12879;BME280;20617;49.476;10.986;2022-09-06T00:28:59;98423.34;;;20.54;82.06
12879;BME280;20617;49.476;10.986;2022-09-06T00:31:09;98428.66;;;20.54;84.39
12879;BME280;20617;49.476;10.986;2022-09-06T00:33:14;98422.00;;;20.48;84.88
12879;BME280;20617;49.476;10.986;2022-09-06T00:35:22;98428.25;;;20.47;84.67
12879;BME280;20617;49.476;10.986;2022-09-06T00:37:28;98427.31;;;20.48;84.36
12879;BME280;20617;49.476;10.986;2022-09-06T00:39:33;98425.59;;;20.47;82.53
12879;BME280;20617;49.476;10.986;2022-09-06T00:41:38;98429.94;;;20.48;82.43
12879;BME280;20617;49.476;10.986;2022-09-06T00:43:43;98430.06;;;20.47;82.00
12879;BME280;20617;49.476;10.986;2022-09-06T00:45:48;98430.78;;;20.49;83.04
12879;BME280;20617;49.476;10.986;2022-09-06T00:47:54;98439.06;;;20.44;83.98
12879;BME280;20617;49.476;10.986;2022-09-06T00:50:00;98435.72;;;20.42;84.22
12879;BME280;20617;49.476;10.986;2022-09-06T00:52:11;98438.72;;;20.38;84.65
12879;BME280;20617;49.476;10.986;2022-09-06T00:54:16;98443.28;;;20.35;85.44
12879;BME280;20617;49.476;10.986;2022-09-06T00:56:21;98440.53;;;20.26;86.16
12879;BME280;20617;49.476;10.986;2022-09-06T00:58:27;98435.34;;;20.24;85.46
12879;BME280;20617;49.476;10.986;2022-09-06T01:00:32;98434.41;;;20.25;85.47
12879;BME280;20617;49.476;10.986;2022-09-06T01:02:37;98438.63;;;20.28;84.52
12879;BME280;20617;49.476;10.986;2022-09-06T01:04:42;98444.25;;;20.23;85.86
12879;BME280;20617;49.476;10.986;2022-09-06T01:07:01;98440.28;;;20.18;86.98
12879;BME280;20617;49.476;10.986;2022-09-06T01:09:22;98432.38;;;20.18;86.80
12879;BME280;20617;49.476;10.986;2022-09-06T01:11:52;98427.91;;;20.18;86.14
12879;BME280;20617;49.476;10.986;2022-09-06T01:14:09;98421.69;;;20.19;85.67
12879;BME280;20617;49.476;10.986;2022-09-06T01:16:28;98430.22;;;20.23;84.64
12879;BME280;20617;49.476;10.986;2022-09-06T01:18:48;98431.03;;;20.23;83.92
12879;BME280;20617;49.476;10.986;2022-09-06T01:21:17;98434.53;;;20.24;83.93
12879;BME280;20617;49.476;10.986;2022-09-06T01:26:20;98435.25;;;20.26;84.65
12879;BME280;20617;49.476;10.986;2022-09-06T01:28:34;98439.09;;;20.22;85.40
12879;BME280;20617;49.476;10.986;2022-09-06T01:30:46;98437.31;;;20.22;86.17
12879;BME280;20617;49.476;10.986;2022-09-06T01:32:55;98438.13;;;20.23;85.71
12879;BME280;20617;49.476;10.986;2022-09-06T01:35:08;98434.53;;;20.24;85.54
12879;BME280;20617;49.476;10.986;2022-09-06T01:37:18;98446.06;;;20.23;85.52
12879;BME280;20617;49.476;10.986;2022-09-06T01:39:26;98436.09;;;20.26;84.86
12879;BME280;20617;49.476;10.986;2022-09-06T01:41:31;98441.38;;;20.26;84.42
12879;BME280;20617;49.476;10.986;2022-09-06T01:43:41;98439.69;;;20.25;84.07
12879;BME280;20617;49.476;10.986;2022-09-06T01:45:57;98436.81;;;20.17;86.05
12879;BME280;20617;49.476;10.986;2022-09-06T01:48:09;98446.66;;;20.15;86.21
12879;BME280;20617;49.476;10.986;2022-09-06T01:52:55;98436.56;;;20.09;87.42
12879;BME280;20617;49.476;10.986;2022-09-06T01:55:16;98444.63;;;20.07;86.68
12879;BME280;20617;49.476;10.986;2022-09-06T01:57:41;98448.81;;;20.10;86.99
12879;BME280;20617;49.476;10.986;2022-09-06T02:00:03;98446.78;;;20.13;86.26
12879;BME280;20617;49.476;10.986;2022-09-06T02:02:17;98445.81;;;20.15;85.84
12879;BME280;20617;49.476;10.986;2022-09-06T02:04:27;98438.97;;;20.12;85.65
12879;BME280;20617;49.476;10.986;2022-09-06T02:06:38;98436.22;;;20.13;84.72
12879;BME280;20617;49.476;10.986;2022-09-06T02:08:47;98431.88;;;20.12;85.32
12879;BME280;20617;49.476;10.986;2022-09-06T02:10:58;98433.81;;;20.10;85.09
12879;BME280;20617;49.476;10.986;2022-09-06T02:13:06;98426.38;;;20.04;85.81
12879;BME280;20617;49.476;10.986;2022-09-06T02:15:19;98425.75;;;20.01;85.70
12879;BME280;20617;49.476;10.986;2022-09-06T02:17:30;98428.03;;;19.94;86.38
12879;BME280;20617;49.476;10.986;2022-09-06T02:19:39;98429.34;;;19.88;86.43
12879;BME280;20617;49.476;10.986;2022-09-06T02:21:51;98435.84;;;19.84;87.14
12879;BME280;20617;49.476;10.986;2022-09-06T02:24:00;98423.56;;;19.83;87.30
12879;BME280;20617;49.476;10.986;2022-09-06T02:26:09;98428.03;;;19.83;86.92
12879;BME280;20617;49.476;10.986;2022-09-06T02:28:16;98428.03;;;19.83;87.23
12879;BME280;20617;49.476;10.986;2022-09-06T02:30:24;98418.53;;;19.80;87.46
12879;BME280;20617;49.476;10.986;2022-09-06T02:32:31;98426.59;;;19.79;87.38
12879;BME280;20617;49.476;10.986;2022-09-06T02:34:39;98424.88;;;19.78;87.40
12879;BME280;20617;49.476;10.986;2022-09-06T02:36:49;98428.63;;;19.75;88.31
12879;BME280;20617;49.476;10.986;2022-09-06T02:38:54;98423.69;;;19.71;88.37
12879;BME280;20617;49.476;10.986;2022-09-06T02:41:00;98425.59;;;19.68;88.58
12879;BME280;20617;49.476;10.986;2022-09-06T02:43:06;98423.69;;;19.71;88.49
12879;BME280;20617;49.476;10.986;2022-09-06T02:45:11;98423.56;;;19.72;88.28
12879;BME280;20617;49.476;10.986;2022-09-06T02:47:18;98417.44;;;19.72;89.03
12879;BME280;20617;49.476;10.986;2022-09-06T02:49:23;98422.72;;;19.72;89.80
12879;BME280;20617;49.476;10.986;2022-09-06T02:51:28;98431.47;;;19.72;89.07
12879;BME280;20617;49.476;10.986;2022-09-06T02:53:33;98424.13;;;19.64;91.12
12879;BME280;20617;49.476;10.986;2022-09-06T02:55:39;98422.66;;;19.60;90.76
12879;BME280;20617;49.476;10.986;2022-09-06T02:57:44;98422.06;;;19.57;91.00
12879;BME280;20617;49.476;10.986;2022-09-06T02:59:51;98421.47;;;19.53;90.62
12879;BME280;20617;49.476;10.986;2022-09-06T03:01:55;98419.91;;;19.51;90.89
12879;BME280;20617;49.476;10.986;2022-09-06T03:04:03;98424.56;;;19.47;91.08
12879;BME280;20617;49.476;10.986;2022-09-06T03:06:09;98414.13;;;19.45;91.12
12879;BME280;20617;49.476;10.986;2022-09-06T03:08:14;98418.69;;;19.43;91.47
12879;BME280;20617;49.476;10.986;2022-09-06T03:10:20;98414.72;;;19.38;91.91
12879;BME280;20617;49.476;10.986;2022-09-06T03:12:25;98412.09;;;19.38;92.03
12879;BME280;20617;49.476;10.986;2022-09-06T03:14:30;98423.72;;;19.35;92.64
12879;BME280;20617;49.476;10.986;2022-09-06T03:16:36;98423.56;;;19.37;93.01
12879;BME280;20617;49.476;10.986;2022-09-06T03:18:41;98426.69;;;19.31;93.85
12879;BME280;20617;49.476;10.986;2022-09-06T03:20:52;98426.69;;;19.31;93.06
12879;BME280;20617;49.476;10.986;2022-09-06T03:22:58;98425.75;;;19.32;92.86
12879;BME280;20617;49.476;10.986;2022-09-06T03:25:03;98422.97;;;19.33;93.37
12879;BME280;20617;49.476;10.986;2022-09-06T03:27:08;98427.19;;;19.36;93.12
12879;BME280;20617;49.476;10.986;2022-09-06T03:29:13;98416.53;;;19.37;92.56
12879;BME280;20617;49.476;10.986;2022-09-06T03:31:18;98422.75;;;19.36;92.00
12879;BME280;20617;49.476;10.986;2022-09-06T03:33:23;98419.25;;;19.36;92.18
12879;BME280;20617;49.476;10.986;2022-09-06T03:35:28;98413.97;;;19.36;92.27
12879;BME280;20617;49.476;10.986;2022-09-06T03:37:35;98416.13;;;19.31;93.17
12879;BME280;20617;49.476;10.986;2022-09-06T03:39:40;98418.75;;;19.31;92.90
12879;BME280;20617;49.476;10.986;2022-09-06T03:41:45;98413.47;;;19.31;93.00
12879;BME280;20617;49.476;10.986;2022-09-06T03:43:50;98416.13;;;19.31;93.25
12879;BME280;20617;49.476;10.986;2022-09-06T03:45:56;98408.34;;;19.29;94.56
12879;BME280;20617;49.476;10.986;2022-09-06T03:48:01;98404.72;;;19.30;94.72
12879;BME280;20617;49.476;10.986;2022-09-06T03:50:07;98397.53;;;19.32;95.47
12879;BME280;20617;49.476;10.986;2022-09-06T03:52:13;98398.16;;;19.36;95.61
12879;BME280;20617;49.476;10.986;2022-09-06T03:54:20;98399.22;;;19.33;97.01
12879;BME280;20617;49.476;10.986;2022-09-06T03:56:25;98400.88;;;19.34;97.62
12879;BME280;20617;49.476;10.986;2022-09-06T03:58:31;98405.34;;;19.34;98.05
12879;BME280;20617;49.476;10.986;2022-09-06T04:00:36;98397.41;;;19.34;98.78
12879;BME280;20617;49.476;10.986;2022-09-06T04:02:41;98398.38;;;19.33;99.04
12879;BME280;20617;49.476;10.986;2022-09-06T04:04:46;98403.75;;;19.31;98.95
12879;BME280;20617;49.476;10.986;2022-09-06T04:06:51;98402.69;;;19.34;98.57
12879;BME280;20617;49.476;10.986;2022-09-06T04:08:56;98403.44;;;19.36;98.44
12879;BME280;20617;49.476;10.986;2022-09-06T04:11:04;98402.47;;;19.37;98.10
12879;BME280;20617;49.476;10.986;2022-09-06T04:13:09;98406.81;;;19.38;97.69
12879;BME280;20617;49.476;10.986;2022-09-06T04:15:14;98407.50;;;19.40;97.55
12879;BME280;20617;49.476;10.986;2022-09-06T04:17:19;98399.72;;;19.38;98.31
12879;BME280;20617;49.476;10.986;2022-09-06T04:19:24;98400.56;;;19.39;97.80
12879;BME280;20617;49.476;10.986;2022-09-06T04:21:29;98397.06;;;19.38;98.01
12879;BME280;20617;49.476;10.986;2022-09-06T04:23:34;98399.72;;;19.38;98.08
12879;BME280;20617;49.476;10.986;2022-09-06T04:25:44;98398.66;;;19.41;98.00
12879;BME280;20617;49.476;10.986;2022-09-06T04:27:52;98395.88;;;19.42;97.43
12879;BME280;20617;49.476;10.986;2022-09-06T04:29:57;98393.13;;;19.44;97.73
12879;BME280;20617;49.476;10.986;2022-09-06T04:32:02;98399.16;;;19.46;97.87
12879;BME280;20617;49.476;10.986;2022-09-06T04:34:07;98399.16;;;19.46;98.23
12879;BME280;20617;49.476;10.986;2022-09-06T04:36:12;98397.34;;;19.47;98.05
12879;BME280;20617;49.476;10.986;2022-09-06T04:38:17;98404.44;;;19.46;98.22
12879;BME280;20617;49.476;10.986;2022-09-06T04:40:22;98400.69;;;19.49;97.94
12879;BME280;20617;49.476;10.986;2022-09-06T04:42:27;98405.63;;;19.53;98.12
12879;BME280;20617;49.476;10.986;2022-09-06T04:44:34;98408.88;;;19.57;98.30
12879;BME280;20617;49.476;10.986;2022-09-06T04:46:40;98413.81;;;19.61;97.99
12879;BME280;20617;49.476;10.986;2022-09-06T04:48:45;98405.44;;;19.67;97.34
12879;BME280;20617;49.476;10.986;2022-09-06T04:50:50;98407.50;;;19.75;96.90
12879;BME280;20617;49.476;10.986;2022-09-06T04:52:55;98404.50;;;19.80;96.03
12879;BME280;20617;49.476;10.986;2022-09-06T04:55:00;98403.31;;;19.84;96.09
12879;BME280;20617;49.476;10.986;2022-09-06T04:57:06;98404.84;;;19.86;95.85
12879;BME280;20617;49.476;10.986;2022-09-06T04:59:11;98400.66;;;19.84;96.19
12879;BME280;20617;49.476;10.986;2022-09-06T05:01:19;98394.50;;;19.83;96.47
12879;BME280;20617;49.476;10.986;2022-09-06T05:03:24;98399.94;;;19.82;97.53
12879;BME280;20617;49.476;10.986;2022-09-06T05:05:29;98397.28;;;19.82;97.74
12879;BME280;20617;49.476;10.986;2022-09-06T05:07:34;98403.31;;;19.84;98.03
12879;BME280;20617;49.476;10.986;2022-09-06T05:09:39;98398.03;;;19.84;98.23
12879;BME280;20617;49.476;10.986;2022-09-06T05:11:45;98399.44;;;19.88;98.21
12879;BME280;20617;49.476;10.986;2022-09-06T05:13:50;98402.44;;;19.95;97.90
12879;BME280;20617;49.476;10.986;2022-09-06T05:15:55;98403.19;;;19.97;97.48
12879;BME280;20617;49.476;10.986;2022-09-06T05:18:05;98408.81;;;20.03;97.32
12879;BME280;20617;49.476;10.986;2022-09-06T05:20:17;98417.47;;;20.05;97.45
12879;BME280;20617;49.476;10.986;2022-09-06T05:22:22;98420.59;;;20.10;96.96
12879;BME280;20617;49.476;10.986;2022-09-06T05:24:27;98427.56;;;20.11;97.18
12879;BME280;20617;49.476;10.986;2022-09-06T05:26:32;98435.25;;;20.03;95.95
12879;BME280;20617;49.476;10.986;2022-09-06T05:28:37;98447.03;;;19.99;95.85
12879;BME280;20617;49.476;10.986;2022-09-06T05:30:42;98433.47;;;19.93;95.44
12879;BME280;20617;49.476;10.986;2022-09-06T05:32:49;98431.03;;;19.89;95.77
12879;BME280;20617;49.476;10.986;2022-09-06T05:34:57;98429.25;;;19.90;95.46
12879;BME280;20617;49.476;10.986;2022-09-06T05:37:02;98433.56;;;19.91;95.81
12879;BME280;20617;49.476;10.986;2022-09-06T05:39:07;98440.28;;;19.95;96.13
12879;BME280;20617;49.476;10.986;2022-09-06T05:41:11;98446.44;;;19.96;96.33
12879;BME280;20617;49.476;10.986;2022-09-06T05:43:16;98446.28;;;19.97;96.33
12879;BME280;20617;49.476;10.986;2022-09-06T05:45:22;98452.19;;;20.01;95.93
12879;BME280;20617;49.476;10.986;2022-09-06T05:47:26;98444.13;;;19.91;96.53
12879;BME280;20617;49.476;10.986;2022-09-06T05:49:34;98432.59;;;19.92;96.23
12879;BME280;20617;49.476;10.986;2022-09-06T05:51:41;98426.59;;;19.90;96.66
12879;BME280;20617;49.476;10.986;2022-09-06T05:53:46;98428.75;;;19.85;97.56
12879;BME280;20617;49.476;10.986;2022-09-06T05:55:51;98428.03;;;19.83;97.89
12879;BME280;20617;49.476;10.986;2022-09-06T05:57:56;98420.69;;;19.86;97.26
12879;BME280;20617;49.476;10.986;2022-09-06T06:00:01;98428.84;;;19.83;97.86
12879;BME280;20617;49.476;10.986;2022-09-06T06:02:12;98427.78;;;19.86;97.57
12879;BME280;20617;49.476;10.986;2022-09-06T06:04:17;98431.03;;;19.89;97.99
12879;BME280;20617;49.476;10.986;2022-09-06T06:06:24;98423.72;;;19.93;97.70
12879;BME280;20617;49.476;10.986;2022-09-06T06:08:33;98426.47;;;20.03;97.37
12879;BME280;20617;49.476;10.986;2022-09-06T06:10:38;98426.00;;;20.09;97.34
12879;BME280;20617;49.476;10.986;2022-09-06T06:12:43;98428.53;;;20.10;97.32
12879;BME280;20617;49.476;10.986;2022-09-06T06:14:50;98429.47;;;20.21;96.80
12879;BME280;20617;49.476;10.986;2022-09-06T06:16:55;98414.69;;;20.29;96.51
12879;BME280;20617;49.476;10.986;2022-09-06T06:19:01;98418.41;;;20.38;95.84
12879;BME280;20617;49.476;10.986;2022-09-06T06:21:10;98411.69;;;20.45;95.86
12879;BME280;20617;49.476;10.986;2022-09-06T06:23:15;98408.56;;;20.40;96.12
12879;BME280;20617;49.476;10.986;2022-09-06T06:25:23;98417.22;;;20.42;96.46
12879;BME280;20617;49.476;10.986;2022-09-06T06:27:28;98415.88;;;20.48;96.51
12879;BME280;20617;49.476;10.986;2022-09-06T06:29:35;98413.25;;;20.48;96.57
12879;BME280;20617;49.476;10.986;2022-09-06T06:31:40;98418.19;;;20.52;96.49
12879;BME280;20617;49.476;10.986;2022-09-06T06:33:44;98418.53;;;20.48;97.08
12879;BME280;20617;49.476;10.986;2022-09-06T06:35:57;98428.66;;;20.54;96.75
12879;BME280;20617;49.476;10.986;2022-09-06T06:38:02;98420.06;;;20.50;96.97
12879;BME280;20617;49.476;10.986;2022-09-06T06:40:08;98417.56;;;20.49;97.69
12879;BME280;20617;49.476;10.986;2022-09-06T06:42:17;98424.66;;;20.48;98.23
12879;BME280;20617;49.476;10.986;2022-09-06T06:44:26;98424.19;;;20.54;97.60
12879;BME280;20617;49.476;10.986;2022-09-06T06:46:33;98417.81;;;20.57;97.67
12879;BME280;20617;49.476;10.986;2022-09-06T06:48:39;98416.75;;;20.60;97.24
12879;BME280;20617;49.476;10.986;2022-09-06T06:50:44;98410.94;;;20.66;96.89
12879;BME280;20617;49.476;10.986;2022-09-06T06:52:49;98407.31;;;20.67;96.84
12879;BME280;20617;49.476;10.986;2022-09-06T06:54:55;98412.84;;;20.75;96.61
12879;BME280;20617;49.476;10.986;2022-09-06T06:56:59;98398.03;;;20.84;96.28
12879;BME280;20617;49.476;10.986;2022-09-06T06:59:07;98395.84;;;20.89;95.16
12879;BME280;20617;49.476;10.986;2022-09-06T07:01:12;98393.00;;;21.01;95.35
12879;BME280;20617;49.476;10.986;2022-09-06T07:03:17;98391.53;;;21.09;94.01
12879;BME280;20617;49.476;10.986;2022-09-06T07:05:22;98392.81;;;21.14;94.07
12879;BME280;20617;49.476;10.986;2022-09-06T07:07:47;98398.91;;;21.26;93.25
12879;BME280;20617;49.476;10.986;2022-09-06T07:09:52;98402.81;;;21.43;92.38
12879;BME280;20617;49.476;10.986;2022-09-06T07:12:17;98405.13;;;21.57;91.13
12879;BME280;20617;49.476;10.986;2022-09-06T07:14:24;98398.16;;;21.77;89.96
12879;BME280;20617;49.476;10.986;2022-09-06T07:16:30;98403.66;;;21.95;88.83
12879;BME280;20617;49.476;10.986;2022-09-06T07:18:35;98412.63;;;22.04;87.29
12879;BME280;20617;49.476;10.986;2022-09-06T07:20:43;98407.25;;;22.15;86.00
12879;BME280;20617;49.476;10.986;2022-09-06T07:23:08;98417.69;;;22.37;84.60
12879;BME280;20617;49.476;10.986;2022-09-06T07:25:34;98406.00;;;22.59;83.24
12879;BME280;20617;49.476;10.986;2022-09-06T07:27:39;98405.75;;;22.72;82.28
12879;BME280;20617;49.476;10.986;2022-09-06T07:29:51;98407.97;;;22.77;81.35
12879;BME280;20617;49.476;10.986;2022-09-06T07:31:56;98405.03;;;22.70;81.07
12879;BME280;20617;49.476;10.986;2022-09-06T07:34:17;98404.22;;;22.70;81.31
12879;BME280;20617;49.476;10.986;2022-09-06T07:36:23;98407.13;;;22.67;80.96
12879;BME280;20617;49.476;10.986;2022-09-06T07:38:28;98414.38;;;22.55;81.57
12879;BME280;20617;49.476;10.986;2022-09-06T07:40:33;98416.19;;;22.54;81.73
12879;BME280;20617;49.476;10.986;2022-09-06T07:42:38;98412.41;;;22.57;82.42
12879;BME280;20617;49.476;10.986;2022-09-06T07:44:43;98411.72;;;22.55;82.37
12879;BME280;20617;49.476;10.986;2022-09-06T07:46:53;98419.25;;;22.59;81.95
12879;BME280;20617;49.476;10.986;2022-09-06T07:49:17;98415.38;;;22.64;82.12
12879;BME280;20617;49.476;10.986;2022-09-06T07:51:22;98414.66;;;22.62;82.18
12879;BME280;20617;49.476;10.986;2022-09-06T07:53:27;98409.06;;;22.55;82.37
12879;BME280;20617;49.476;10.986;2022-09-06T07:55:32;98409.63;;;22.58;82.21
12879;BME280;20617;49.476;10.986;2022-09-06T07:57:37;98404.16;;;22.60;81.65
12879;BME280;20617;49.476;10.986;2022-09-06T07:59:42;98408.09;;;22.56;81.91
12879;BME280;20617;49.476;10.986;2022-09-06T08:01:47;98411.44;;;22.58;82.46
12879;BME280;20617;49.476;10.986;2022-09-06T08:03:55;98414.09;;;22.58;82.30
12879;BME280;20617;49.476;10.986;2022-09-06T08:06:00;98406.81;;;22.60;82.15
12879;BME280;20617;49.476;10.986;2022-09-06T08:08:08;98413.81;;;22.61;81.89
12879;BME280;20617;49.476;10.986;2022-09-06T08:10:33;98420.09;;;22.60;82.09
12879;BME280;20617;49.476;10.986;2022-09-06T08:12:37;98415.38;;;22.73;81.51
12879;BME280;20617;49.476;10.986;2022-09-06T08:14:42;98416.38;;;22.82;80.47
12879;BME280;20617;49.476;10.986;2022-09-06T08:16:47;98415.53;;;22.91;79.92
12879;BME280;20617;49.476;10.986;2022-09-06T08:18:56;98415.16;;;23.05;79.13
12879;BME280;20617;49.476;10.986;2022-09-06T08:21:08;98409.16;;;23.23;78.09
12879;BME280;20617;49.476;10.986;2022-09-06T08:23:14;98405.78;;;23.40;77.40
12879;BME280;20617;49.476;10.986;2022-09-06T08:25:19;98407.16;;;23.54;76.68
12879;BME280;20617;49.476;10.986;2022-09-06T08:27:24;98415.25;;;23.62;75.53
12879;BME280;20617;49.476;10.986;2022-09-06T08:29:29;98403.75;;;23.62;75.34
12879;BME280;20617;49.476;10.986;2022-09-06T08:31:36;98412.72;;;23.70;75.07
12879;BME280;20617;49.476;10.986;2022-09-06T08:33:42;98409.06;;;23.81;74.52
12879;BME280;20617;49.476;10.986;2022-09-06T08:35:57;98417.00;;;23.91;73.87
12879;BME280;20617;49.476;10.986;2022-09-06T08:38:02;98410.25;;;23.97;74.11
12879;BME280;20617;49.476;10.986;2022-09-06T08:40:08;98414.88;;;24.04;73.51
12879;BME280;20617;49.476;10.986;2022-09-06T08:42:13;98421.31;;;24.02;73.83
12879;BME280;20617;49.476;10.986;2022-09-06T08:44:19;98415.44;;;23.98;73.81
12879;BME280;20617;49.476;10.986;2022-09-06T08:46:51;98415.41;;;24.08;73.62
12879;BME280;20617;49.476;10.986;2022-09-06T08:48:58;98412.44;;;24.11;73.80
12879;BME280;20617;49.476;10.986;2022-09-06T08:51:21;98411.03;;;24.16;73.26
12879;BME280;20617;49.476;10.986;2022-09-06T08:53:29;98412.03;;;24.15;72.81
12879;BME280;20617;49.476;10.986;2022-09-06T08:55:36;98411.44;;;24.22;72.40
12879;BME280;20617;49.476;10.986;2022-09-06T08:57:55;98411.84;;;24.27;72.48
12879;BME280;20617;49.476;10.986;2022-09-06T09:00:08;98420.75;;;24.35;72.63
12879;BME280;20617;49.476;10.986;2022-09-06T09:02:17;98409.25;;;24.45;72.48
12879;BME280;20617;49.476;10.986;2022-09-06T09:04:25;98412.16;;;24.51;71.43
12879;BME280;20617;49.476;10.986;2022-09-06T09:06:34;98410.94;;;24.63;71.00
12879;BME280;20617;49.476;10.986;2022-09-06T09:08:44;98416.22;;;24.73;70.30
12879;BME280;20617;49.476;10.986;2022-09-06T09:10:57;98410.59;;;24.76;70.00
12879;BME280;20617;49.476;10.986;2022-09-06T09:13:07;98402.75;;;24.75;69.88
12879;BME280;20617;49.476;10.986;2022-09-06T09:15:14;98401.16;;;24.64;69.97
12879;BME280;20617;49.476;10.986;2022-09-06T09:17:24;98401.16;;;24.64;69.30
12879;BME280;20617;49.476;10.986;2022-09-06T09:19:30;98391.94;;;24.58;70.08
12879;BME280;20617;49.476;10.986;2022-09-06T09:21:41;98394.66;;;24.67;69.47
12879;BME280;20617;49.476;10.986;2022-09-06T09:23:50;98396.75;;;24.73;69.18
12879;BME280;20617;49.476;10.986;2022-09-06T09:26:05;98383.81;;;24.78;68.91
12879;BME280;20617;49.476;10.986;2022-09-06T09:28:15;98384.59;;;24.88;68.98
12879;BME280;20617;49.476;10.986;2022-09-06T09:30:20;98378.72;;;24.84;67.44
12879;BME280;20617;49.476;10.986;2022-09-06T09:32:45;98381.53;;;24.83;67.39
12879;BME280;20617;49.476;10.986;2022-09-06T09:34:50;98374.75;;;24.89;67.81
12879;BME280;20617;49.476;10.986;2022-09-06T09:37:12;98371.78;;;24.92;66.94
12879;BME280;20617;49.476;10.986;2022-09-06T09:39:41;98368.44;;;24.90;67.11
12879;BME280;20617;49.476;10.986;2022-09-06T09:41:49;98374.00;;;24.96;66.94
12879;BME280;20617;49.476;10.986;2022-09-06T09:43:56;98377.19;;;25.00;67.14
12879;BME280;20617;49.476;10.986;2022-09-06T09:46:12;98360.09;;;25.02;66.38
12879;BME280;20617;49.476;10.986;2022-09-06T09:48:20;98357.81;;;25.07;65.83
12879;BME280;20617;49.476;10.986;2022-09-06T09:50:31;98360.53;;;25.16;64.94
12879;BME280;20617;49.476;10.986;2022-09-06T09:52:43;98347.91;;;25.18;65.07
12879;BME280;20617;49.476;10.986;2022-09-06T09:54:48;98353.75;;;25.21;65.51
12879;BME280;20617;49.476;10.986;2022-09-06T09:56:57;98347.19;;;25.34;65.08
12879;BME280;20617;49.476;10.986;2022-09-06T09:59:07;98352.13;;;25.46;64.89
12879;BME280;20617;49.476;10.986;2022-09-06T10:01:21;98341.81;;;25.51;63.99
12879;BME280;20617;49.476;10.986;2022-09-06T10:03:29;98332.38;;;25.65;63.79
12879;BME280;20617;49.476;10.986;2022-09-06T10:05:34;98333.94;;;25.76;63.95
12879;BME280;20617;49.476;10.986;2022-09-06T10:07:45;98334.38;;;25.89;63.13
12879;BME280;20617;49.476;10.986;2022-09-06T10:09:57;98340.09;;;26.03;61.49
12879;BME280;20617;49.476;10.986;2022-09-06T10:12:03;98336.34;;;26.22;61.29
12879;BME280;20617;49.476;10.986;2022-09-06T10:14:09;98333.06;;;26.36;60.15
12879;BME280;20617;49.476;10.986;2022-09-06T10:16:14;98335.06;;;26.42;59.45
12879;BME280;20617;49.476;10.986;2022-09-06T10:18:28;98322.72;;;26.49;58.19
12879;BME280;20617;49.476;10.986;2022-09-06T10:20:38;98323.72;;;26.48;57.68
12879;BME280;20617;49.476;10.986;2022-09-06T10:22:55;98328.44;;;26.54;57.91
12879;BME280;20617;49.476;10.986;2022-09-06T10:27:58;98327.31;;;26.23;57.39
12879;BME280;20617;49.476;10.986;2022-09-06T10:30:12;98321.31;;;26.20;57.81
12879;BME280;20617;49.476;10.986;2022-09-06T10:32:28;98319.84;;;26.34;58.03
12879;BME280;20617;49.476;10.986;2022-09-06T10:34:54;98319.88;;;26.42;58.12
12879;BME280;20617;49.476;10.986;2022-09-06T10:37:11;98314.22;;;26.46;57.93
12879;BME280;20617;49.476;10.986;2022-09-06T10:39:30;98316.09;;;26.53;56.68
12879;BME280;20617;49.476;10.986;2022-09-06T10:41:59;98307.25;;;26.61;55.72
12879;BME280;20617;49.476;10.986;2022-09-06T10:44:15;98317.59;;;26.64;53.86
12879;BME280;20617;49.476;10.986;2022-09-06T10:46:26;98313.25;;;26.63;54.04
12879;BME280;20617;49.476;10.986;2022-09-06T10:48:34;98315.94;;;26.71;53.83
12879;BME280;20617;49.476;10.986;2022-09-06T10:50:50;98314.59;;;26.75;52.62
12879;BME280;20617;49.476;10.986;2022-09-06T10:52:59;98303.75;;;26.69;52.76
12879;BME280;20617;49.476;10.986;2022-09-06T10:55:15;98306.59;;;26.75;52.74
12879;BME280;20617;49.476;10.986;2022-09-06T10:57:25;98302.91;;;26.84;53.24
12879;BME280;20617;49.476;10.986;2022-09-06T10:59:53;98286.75;;;26.94;52.12
12879;BME280;20617;49.476;10.986;2022-09-06T11:02:11;98292.25;;;27.01;51.61
12879;BME280;20617;49.476;10.986;2022-09-06T11:04:24;98284.72;;;27.04;51.97
12879;BME280;20617;49.476;10.986;2022-09-06T11:06:35;98283.06;;;27.03;51.66
12879;BME280;20617;49.476;10.986;2022-09-06T11:08:45;98288.22;;;27.05;51.25
12879;BME280;20617;49.476;10.986;2022-09-06T11:10:57;98290.41;;;27.09;49.77
12879;BME280;20617;49.476;10.986;2022-09-06T11:13:10;98287.06;;;27.24;49.09
12879;BME280;20617;49.476;10.986;2022-09-06T11:15:20;98288.91;;;27.31;47.30
12879;BME280;20617;49.476;10.986;2022-09-06T11:17:31;98286.88;;;27.34;47.86
12879;BME280;20617;49.476;10.986;2022-09-06T11:19:44;98288.88;;;27.40;47.25
12879;BME280;20617;49.476;10.986;2022-09-06T11:22:18;98284.97;;;27.59;46.98